createdAt,value
2019-03-22T00:00:20.304Z,1.60
2019-03-22T00:02:48.750Z,1.50
2019-03-22T00:05:17.147Z,1.60
2019-03-22T00:07:54.383Z,1.60
2019-03-22T00:12:50.867Z,1.60
2019-03-22T00:15:19.256Z,1.50
2019-03-22T00:20:15.800Z,1.40
2019-03-22T00:25:12.346Z,1.30
2019-03-22T00:27:40.744Z,1.30
2019-03-22T00:30:10.390Z,1.30
2019-03-22T00:32:39.037Z,1.30
2019-03-22T00:42:34.002Z,1.20
2019-03-22T00:45:02.413Z,1.20
2019-03-22T00:47:30.812Z,1.20
2019-03-22T00:49:59.218Z,1.10
2019-03-22T00:52:27.621Z,1.20
2019-03-22T00:54:56.085Z,1.20
2019-03-22T00:57:28.775Z,1.10
2019-03-22T00:59:54.717Z,1.10
2019-03-22T01:02:23.195Z,1.10
2019-03-22T01:04:51.632Z,1.10
2019-03-22T01:07:20.046Z,1.20
2019-03-22T01:09:48.452Z,1.20
2019-03-22T01:14:44.942Z,1.00
2019-03-22T01:17:13.351Z,1.00
2019-03-22T01:19:41.746Z,1.00
2019-03-22T01:24:38.302Z,0.80
2019-03-22T01:29:54.124Z,0.70
2019-03-22T01:32:22.525Z,0.70
2019-03-22T01:42:34.564Z,0.60
2019-03-22T01:45:03.640Z,0.60
2019-03-22T01:47:32.045Z,0.60
2019-03-22T01:50:00.446Z,0.50
2019-03-22T01:52:28.851Z,0.50
2019-03-22T01:54:57.260Z,0.50
2019-03-22T01:57:25.664Z,0.50
2019-03-22T01:59:54.059Z,0.50
2019-03-22T02:02:22.533Z,0.50
2019-03-22T02:04:50.924Z,0.40
2019-03-22T02:07:19.344Z,0.40
2019-03-22T02:09:47.851Z,0.50
2019-03-22T02:12:16.273Z,0.50
2019-03-22T02:14:44.678Z,0.50
2019-03-22T02:19:41.152Z,0.50
2019-03-22T02:22:09.559Z,0.40
2019-03-22T02:27:06.045Z,0.40
2019-03-22T02:32:02.522Z,0.20
2019-03-22T02:34:30.928Z,0.20
2019-03-22T02:36:59.349Z,0.20
2019-03-22T02:39:28.430Z,0.20
2019-03-22T02:41:56.931Z,0.20
2019-03-22T02:44:25.437Z,0.10
2019-03-22T02:46:53.893Z,0.20
2019-03-22T02:49:22.302Z,0.10
2019-03-22T02:51:50.695Z,0.10
2019-03-22T02:54:19.105Z,0.10
2019-03-22T02:57:06.869Z,0.10
2019-03-22T02:59:35.264Z,0.10
2019-03-22T03:04:31.729Z,0.10
2019-03-22T03:07:00.134Z,0.10
2019-03-22T03:11:56.620Z,0.10
2019-03-22T03:16:53.091Z,0.20
2019-03-22T03:21:49.641Z,0.10
2019-03-22T03:24:18.045Z,0.00
2019-03-22T03:26:46.441Z,0.00
2019-03-22T03:29:14.847Z,0.00
2019-03-22T03:31:43.281Z,-0.10
2019-03-22T03:39:08.494Z,0.10
2019-03-22T03:41:37.398Z,0.00
2019-03-22T03:44:05.874Z,0.10
2019-03-22T03:46:53.618Z,0.10
2019-03-22T03:49:22.025Z,0.10
2019-03-22T03:51:50.429Z,0.00
2019-03-22T03:56:47.002Z,-0.10
2019-03-22T03:59:15.405Z,-0.20
2019-03-22T04:01:43.807Z,-0.20
2019-03-22T04:04:12.228Z,-0.30
2019-03-22T04:11:36.799Z,-0.30
2019-03-22T04:14:05.278Z,-0.40
2019-03-22T04:19:01.765Z,-0.40
2019-03-22T04:21:30.158Z,-0.40
2019-03-22T04:23:58.574Z,-0.50
2019-03-22T04:27:06.106Z,-0.50
2019-03-22T04:29:34.529Z,-0.50
2019-03-22T04:32:02.951Z,-0.50
2019-03-22T04:34:31.355Z,-0.50
2019-03-22T04:36:59.784Z,-0.50
2019-03-22T04:39:28.184Z,-0.50
2019-03-22T04:41:56.588Z,-0.60
2019-03-22T04:44:25.014Z,-0.60
2019-03-22T04:46:54.760Z,-0.60
2019-03-22T04:49:25.112Z,-0.60
2019-03-22T04:51:54.973Z,-0.60
2019-03-22T04:54:25.526Z,-0.60
2019-03-22T04:56:56.287Z,-0.60
2019-03-22T04:59:26.132Z,-0.60
2019-03-22T05:01:55.869Z,-0.60
2019-03-22T05:06:54.077Z,-0.70
2019-03-22T05:11:56.568Z,-0.40
2019-03-22T05:14:26.016Z,-0.40
2019-03-22T05:16:55.224Z,-0.50
2019-03-22T05:19:26.708Z,-0.60
2019-03-22T05:21:56.353Z,-0.60
2019-03-22T05:26:55.936Z,-0.60
2019-03-22T05:32:00.461Z,-0.70
2019-03-22T05:34:28.935Z,-0.70
2019-03-22T05:39:25.493Z,-0.60
2019-03-22T05:41:53.899Z,-0.60
2019-03-22T05:44:22.316Z,-0.60
2019-03-22T05:46:50.717Z,-0.50
2019-03-22T05:49:19.152Z,-0.50
2019-03-22T05:52:06.937Z,-0.50
2019-03-22T05:54:35.344Z,-0.40
2019-03-22T05:59:41.817Z,-0.30
2019-03-22T06:02:03.733Z,-0.20
2019-03-22T06:04:32.146Z,-0.10
2019-03-22T06:07:00.541Z,0.00
2019-03-22T06:09:28.964Z,0.00
2019-03-22T06:11:57.381Z,0.10
2019-03-22T06:14:25.783Z,0.10
2019-03-22T06:16:54.164Z,0.20
2019-03-22T06:19:22.586Z,0.20
2019-03-22T06:21:50.983Z,0.40
2019-03-22T06:24:19.389Z,0.50
2019-03-22T06:26:47.776Z,0.50
2019-03-22T06:29:16.242Z,0.60
2019-03-22T06:31:44.656Z,0.70
2019-03-22T06:34:13.093Z,0.90
2019-03-22T06:36:41.513Z,1.30
2019-03-22T06:39:10.040Z,1.90
2019-03-22T06:41:38.584Z,2.60
2019-03-22T06:44:07.097Z,3.30
2019-03-22T06:46:35.509Z,3.90
2019-03-22T06:49:03.899Z,4.40
2019-03-22T06:51:32.422Z,4.90
2019-03-22T06:54:00.837Z,5.30
2019-03-22T06:56:29.297Z,5.70
2019-03-22T06:58:57.691Z,6.20
2019-03-22T07:01:26.108Z,6.50
2019-03-22T07:03:54.701Z,6.70
2019-03-22T07:06:23.137Z,6.90
2019-03-22T07:08:51.556Z,7.20
2019-03-22T07:11:42.441Z,7.40
2019-03-22T07:14:10.830Z,7.80
2019-03-22T07:16:39.245Z,8.10
2019-03-22T07:19:07.657Z,8.20
2019-03-22T07:21:36.084Z,8.20
2019-03-22T07:24:04.645Z,8.20
2019-03-22T07:26:33.068Z,8.40
2019-03-22T07:29:01.642Z,8.50
2019-03-22T07:31:30.054Z,8.50
2019-03-22T07:33:58.614Z,8.80
2019-03-22T07:36:27.080Z,8.90
2019-03-22T08:03:01.085Z,10.20
2019-03-22T08:05:31.879Z,10.40
2019-03-22T08:10:36.185Z,11.00
2019-03-22T08:13:10.985Z,11.10
2019-03-22T08:15:41.052Z,11.40
2019-03-22T08:18:10.548Z,11.60
2019-03-22T08:20:39.124Z,11.80
2019-03-22T08:23:18.898Z,12.10
2019-03-22T08:25:47.317Z,12.30
2019-03-22T08:33:12.047Z,12.90
2019-03-22T08:35:40.482Z,13.10
2019-03-22T08:38:08.945Z,13.20
2019-03-22T08:40:37.356Z,13.40
2019-03-22T08:43:05.789Z,13.70
2019-03-22T08:45:35.727Z,13.90
2019-03-22T08:48:04.479Z,14.20
2019-03-22T08:50:34.425Z,14.50
2019-03-22T08:53:02.829Z,14.90
2019-03-22T08:55:31.337Z,15.50
2019-03-22T08:57:59.786Z,15.80
2019-03-22T09:02:58.084Z,16.20
2019-03-22T09:05:26.496Z,16.40
2019-03-22T09:07:54.905Z,16.40
2019-03-22T09:12:51.405Z,16.50
2019-03-22T09:15:19.813Z,16.70
2019-03-22T09:20:16.488Z,17.00
2019-03-22T09:22:44.973Z,17.10
2019-03-22T09:25:13.358Z,17.40
2019-03-22T09:27:41.813Z,17.50
2019-03-22T09:30:12.893Z,17.60
2019-03-22T09:32:41.306Z,17.60
2019-03-22T09:35:09.800Z,17.80
2019-03-22T09:37:38.285Z,18.00
2019-03-22T09:42:37.011Z,17.90
2019-03-22T09:45:10.084Z,18.00
2019-03-22T09:47:38.529Z,18.20
2019-03-22T09:50:11.830Z,18.70
2019-03-22T09:57:38.472Z,17.80
2019-03-22T10:00:10.029Z,17.90
2019-03-22T10:02:38.921Z,18.30
2019-03-22T10:05:07.402Z,18.30
2019-03-22T10:07:35.809Z,18.40
2019-03-22T10:10:06.352Z,18.70
2019-03-22T10:12:34.760Z,18.80
2019-03-22T10:15:04.153Z,18.70
2019-03-22T10:17:34.549Z,19.10
2019-03-22T10:20:03.190Z,19.50
2019-03-22T10:22:31.657Z,19.80
2019-03-22T10:25:00.993Z,19.80
2019-03-22T10:27:29.442Z,19.80
2019-03-22T10:29:57.901Z,20.10
2019-03-22T10:32:26.421Z,20.30
2019-03-22T10:34:55.891Z,20.20
2019-03-22T10:37:24.992Z,20.10
2019-03-22T10:39:53.477Z,20.20
2019-03-22T10:42:21.953Z,19.80
2019-03-22T10:47:18.639Z,19.00
2019-03-22T10:49:47.066Z,19.00
2019-03-22T10:52:15.510Z,19.30
2019-03-22T10:57:13.757Z,19.80
2019-03-22T11:02:10.377Z,18.50
2019-03-22T11:07:07.033Z,16.40
2019-03-22T11:09:35.445Z,15.70
2019-03-22T11:14:33.761Z,14.70
2019-03-22T11:17:02.180Z,14.40
2019-03-22T11:19:30.592Z,14.20
2019-03-22T11:21:59.302Z,14.20
2019-03-22T11:24:27.942Z,14.30
2019-03-22T11:26:56.378Z,14.20
2019-03-22T11:29:24.831Z,14.10
2019-03-22T11:31:53.229Z,14.00
2019-03-22T11:34:21.689Z,13.90
2019-03-22T11:36:50.176Z,13.90
2019-03-22T11:39:18.589Z,14.00
2019-03-22T11:41:46.999Z,14.00
2019-03-22T11:51:40.340Z,13.70
2019-03-22T11:54:08.949Z,13.70
2019-03-22T11:56:37.365Z,13.80
2019-03-22T11:59:05.889Z,13.90
2019-03-22T12:01:34.322Z,13.80
2019-03-22T12:04:03.078Z,13.90
2019-03-22T12:06:31.521Z,13.80
2019-03-22T12:08:59.954Z,13.90
2019-03-22T12:11:28.356Z,13.90
2019-03-22T12:13:56.754Z,13.80
2019-03-22T12:18:53.339Z,13.80
2019-03-22T12:21:21.789Z,13.80
2019-03-22T12:23:50.223Z,13.90
2019-03-22T12:26:18.631Z,13.90
2019-03-22T12:33:43.225Z,13.90
2019-03-22T12:36:11.793Z,14.00
2019-03-22T12:38:40.247Z,14.10
2019-03-22T12:43:36.739Z,14.20
2019-03-22T12:46:05.153Z,14.20
2019-03-22T12:48:33.601Z,14.30
2019-03-22T12:51:02.025Z,14.40
2019-03-22T12:53:30.425Z,14.40
2019-03-22T12:55:58.849Z,14.40
2019-03-22T12:58:27.267Z,14.40
2019-03-22T13:00:55.670Z,14.40
2019-03-22T13:05:53.144Z,14.60
2019-03-22T13:08:21.570Z,14.60
2019-03-22T13:13:18.065Z,14.70
2019-03-22T13:18:14.598Z,14.80
2019-03-22T13:20:43.029Z,14.80
2019-03-22T13:23:11.477Z,14.80
2019-03-22T13:25:39.870Z,14.90
2019-03-22T13:28:09.670Z,14.90
2019-03-22T13:33:07.505Z,15.00
2019-03-22T13:35:35.912Z,15.00
2019-03-22T13:38:04.466Z,15.00
2019-03-22T13:40:32.956Z,15.10
2019-03-22T13:45:29.468Z,15.30
2019-03-22T13:47:57.912Z,15.30
2019-03-22T13:50:26.369Z,15.30
2019-03-22T13:55:22.991Z,15.40
2019-03-22T13:57:51.408Z,15.30
2019-03-22T14:05:16.150Z,15.20
2019-03-22T14:07:44.602Z,15.20
2019-03-22T14:10:30.472Z,15.20
2019-03-22T14:13:00.450Z,15.20
2019-03-22T14:15:28.856Z,15.20
2019-03-22T14:17:58.149Z,15.20
2019-03-22T14:23:14.123Z,15.10
2019-03-22T14:25:42.533Z,15.10
2019-03-22T14:28:10.953Z,15.10
2019-03-22T14:30:39.344Z,15.10
2019-03-22T14:33:13.343Z,15.10
2019-03-22T14:35:37.932Z,15.20
2019-03-22T14:38:06.428Z,15.10
2019-03-22T14:40:34.850Z,15.20
2019-03-22T14:43:03.243Z,15.30
2019-03-22T14:45:31.727Z,15.20
2019-03-22T14:48:00.202Z,15.20
2019-03-22T14:50:28.647Z,15.20
2019-03-22T14:52:57.040Z,15.10
2019-03-22T14:55:25.457Z,15.10
2019-03-22T14:57:53.891Z,15.20
2019-03-22T15:00:22.295Z,15.20
2019-03-22T15:02:50.724Z,15.20
2019-03-22T15:05:19.141Z,15.30
2019-03-22T15:07:47.556Z,15.30
2019-03-22T15:10:16.404Z,15.30
2019-03-22T15:12:44.894Z,15.20
2019-03-22T15:15:18.136Z,15.20
2019-03-22T15:18:02.886Z,15.20
2019-03-22T15:20:32.959Z,15.20
2019-03-22T15:23:05.680Z,15.10
2019-03-22T15:25:35.760Z,15.00
2019-03-22T15:30:58.077Z,14.90
2019-03-22T15:33:34.947Z,14.80
2019-03-22T15:36:05.520Z,14.80
2019-03-22T15:38:35.662Z,14.70
2019-03-22T15:41:04.144Z,14.70
2019-03-22T15:43:32.633Z,14.60
2019-03-22T15:46:01.145Z,14.50
2019-03-22T15:48:29.612Z,14.50
2019-03-22T15:50:58.015Z,14.50
2019-03-22T15:53:26.449Z,14.50
2019-03-22T15:58:22.944Z,14.40
2019-03-22T16:00:51.353Z,14.30
2019-03-22T16:03:19.785Z,14.30
2019-03-22T16:05:48.295Z,14.20
2019-03-22T16:08:19.022Z,14.20
2019-03-22T16:10:47.464Z,14.10
2019-03-22T16:15:44.014Z,13.80
2019-03-22T16:18:14.761Z,13.70
2019-03-22T16:20:43.157Z,13.60
2019-03-22T16:23:11.601Z,13.50
2019-03-22T16:25:40.007Z,13.40
2019-03-22T16:28:08.490Z,13.40
2019-03-22T16:30:36.941Z,13.30
2019-03-22T16:33:05.444Z,13.20
2019-03-22T16:35:34.660Z,13.10
2019-03-22T16:42:59.296Z,13.00
2019-03-22T16:57:52.685Z,12.70
2019-03-22T17:00:21.156Z,12.60
2019-03-22T17:02:49.581Z,12.50
2019-03-22T17:05:19.672Z,12.40
2019-03-22T17:07:48.072Z,12.30
2019-03-22T17:12:44.600Z,12.10
2019-03-22T17:15:14.031Z,12.00
2019-03-22T17:17:42.466Z,11.90
2019-03-22T17:20:11.912Z,11.80
2019-03-22T17:25:09.694Z,11.80
2019-03-22T17:27:39.306Z,11.70
2019-03-22T17:30:10.813Z,11.70
2019-03-22T17:32:39.264Z,11.60
2019-03-22T17:35:08.048Z,11.60
2019-03-22T17:37:36.528Z,11.50
2019-03-22T17:40:10.241Z,11.50
2019-03-22T17:42:39.979Z,11.50
2019-03-22T17:45:16.859Z,11.40
2019-03-22T17:47:45.443Z,11.40
2019-03-22T17:50:15.719Z,11.20
2019-03-22T17:52:44.216Z,11.20
2019-03-22T17:55:12.968Z,11.10
2019-03-22T17:57:41.397Z,11.10
2019-03-22T18:00:16.872Z,11.00
2019-03-22T18:02:45.300Z,10.90
2019-03-22T18:07:41.913Z,10.70
2019-03-22T18:12:39.230Z,10.60
2019-03-22T18:17:36.724Z,10.40
2019-03-22T18:20:08.145Z,10.30
2019-03-22T18:22:36.548Z,10.30
2019-03-22T18:25:09.761Z,10.20
2019-03-22T18:27:38.361Z,10.10
2019-03-22T18:35:17.819Z,9.90
2019-03-22T18:37:46.249Z,9.90
2019-03-22T18:45:13.340Z,9.70
2019-03-22T18:47:42.387Z,9.70
2019-03-22T18:52:39.379Z,9.60
2019-03-22T19:02:34.018Z,9.30
2019-03-22T19:05:02.440Z,9.20
2019-03-22T19:07:30.852Z,9.20
2019-03-22T19:09:59.262Z,9.10
2019-03-22T19:14:55.805Z,9.00
2019-03-22T19:19:52.321Z,9.10
2019-03-22T19:24:48.905Z,9.10
2019-03-22T19:27:17.330Z,9.00
2019-03-22T19:37:10.668Z,8.60
2019-03-22T19:39:39.065Z,8.40
2019-03-22T19:42:09.552Z,8.40
2019-03-22T19:44:38.029Z,8.30
2019-03-22T19:47:06.450Z,8.30
2019-03-22T19:49:34.846Z,8.30
2019-03-22T19:52:03.264Z,8.20
2019-03-22T19:54:31.665Z,8.10
2019-03-22T19:57:00.105Z,8.00
2019-03-22T19:59:28.567Z,8.00
2019-03-22T20:01:56.996Z,8.00
2019-03-22T20:04:25.406Z,7.90
2019-03-22T20:06:53.836Z,7.90
2019-03-22T20:09:22.262Z,7.80
2019-03-22T20:11:50.710Z,7.70
2019-03-22T20:14:19.117Z,7.70
2019-03-22T20:24:11.773Z,7.40
2019-03-22T20:26:40.205Z,7.40
2019-03-22T20:29:08.602Z,7.30
2019-03-22T20:34:05.177Z,7.30
2019-03-22T20:36:33.892Z,7.30
2019-03-22T20:39:02.324Z,7.20
2019-03-22T20:41:30.759Z,7.10
2019-03-22T20:43:59.157Z,7.00
2019-03-22T20:46:27.598Z,6.90
2019-03-22T20:48:56.002Z,6.90
2019-03-22T20:51:24.444Z,6.80
2019-03-22T20:53:52.864Z,6.70
2019-03-22T20:56:21.292Z,6.70
2019-03-22T20:58:49.709Z,6.60
2019-03-22T21:03:46.184Z,6.50
2019-03-22T21:06:14.629Z,6.50
2019-03-22T21:08:43.134Z,6.50
2019-03-22T21:11:11.606Z,6.50
2019-03-22T21:13:40.006Z,6.40
2019-03-22T21:16:08.441Z,6.30
2019-03-22T21:18:36.876Z,6.30
2019-03-22T21:21:05.281Z,6.30
2019-03-22T21:23:36.543Z,6.20
2019-03-22T21:26:03.824Z,6.10
2019-03-22T21:28:32.257Z,6.10
2019-03-22T21:31:00.680Z,6.20
2019-03-22T21:35:57.178Z,6.20
2019-03-22T21:40:53.658Z,6.00
2019-03-22T21:45:50.637Z,5.90
2019-03-22T21:48:19.073Z,5.90
2019-03-22T21:50:47.479Z,5.80
2019-03-22T21:53:15.901Z,5.80
2019-03-22T21:55:44.308Z,5.80
2019-03-22T21:58:12.790Z,5.80
2019-03-22T22:00:41.216Z,5.80
2019-03-22T22:08:26.856Z,5.80
2019-03-22T22:10:59.592Z,5.70
2019-03-22T22:13:25.409Z,5.70
2019-03-22T22:15:53.848Z,5.70
2019-03-22T22:23:18.507Z,5.60
2019-03-22T22:28:15.101Z,5.40
2019-03-22T22:30:43.518Z,5.30
2019-03-22T22:33:11.957Z,5.30
2019-03-22T22:35:40.398Z,5.30
2019-03-22T22:38:08.813Z,5.40
2019-03-22T22:43:05.322Z,5.40
2019-03-22T22:45:33.748Z,5.30
2019-03-22T22:50:30.244Z,5.30
2019-03-22T22:52:58.685Z,5.20
2019-03-22T22:57:55.200Z,5.10
2019-03-22T23:00:25.253Z,5.00
2019-03-22T23:02:53.660Z,5.00
2019-03-22T23:05:22.052Z,5.00
2019-03-22T23:07:50.477Z,4.90
2019-03-22T23:17:43.236Z,4.80
2019-03-22T23:20:17.572Z,4.80
2019-03-22T23:27:42.195Z,4.80
2019-03-22T23:30:12.637Z,4.70
2019-03-22T23:32:41.468Z,4.80
2019-03-22T23:35:10.248Z,4.70
2019-03-22T23:40:07.750Z,4.60
2019-03-22T23:42:36.157Z,4.50
2019-03-22T23:47:34.432Z,4.40
2019-03-22T23:50:03.520Z,4.40
2019-03-22T23:55:00.005Z,4.30
2019-03-22T23:57:28.455Z,4.20
2019-03-22T23:59:56.870Z,4.20
